Terminal Aerodrome Forecast
Issued by NWS Cleveland, OH

Home | Current Version | Previous Version | Graphics & Text | Print | Product List | Glossary On
Versions: 1 2 3 4 5 6 7 8 9 10 11 12 13 14 15 16
000
FTUS41 KCLE 061501 AAB
TAFERI
TAF AMD
KERI 061501Z 0615/0712 31006KT P6SM SCT030 BKN080
      TEMPO 0615/0619 BKN030
     FM061900 34006KT P6SM VCSH SCT040 BKN100
     FM070100 18006KT P6SM SCT100=

USA.gov is the U.S. government's official web portal to all federal, state and local government web resources and services.